Time;durP1;ratioP1;P1;durP2;ratioP2;P2;SDS_P1;SDS_P2;PMS_P1;PMS_P2;Temp;Humidity;BMP_temperature;BMP_pressure;BME280_temperature;BME280_humidity;BME280_pressure;Samples;Min_cycle;Max_cycle;Signal;HPM_P1;HPM_P2
2023/12/24 00:01:11;;;;;;;0.77;0.25;;;;;;;;;;4977334;28;20595;-72
2023/12/24 00:03:38;;;;;;;0.00;0.00;;;;;;;;;;4979815;28;20057;-72
2023/12/24 00:06:04;;;;;;;1.55;0.63;;;;;;;;;;4978689;28;20040;-71
2023/12/24 00:08:31;;;;;;;0.95;0.45;;;;;;;;;;4982390;28;20665;-71
2023/12/24 00:10:57;;;;;;;0.32;0.30;;;;;;;;;;4978605;28;20038;-71
2023/12/24 00:13:23;;;;;;;0.00;0.00;;;;;;;;;;4968244;28;20045;-72
2023/12/24 00:15:49;;;;;;;0.08;0.08;;;;;;;;;;4964626;28;20047;-72
2023/12/24 00:18:15;;;;;;;0.00;0.00;;;;;;;;;;4971152;28;20041;-72
2023/12/24 00:20:41;;;;;;;0.20;0.10;;;;;;;;;;4990593;28;20050;-72
2023/12/24 00:23:07;;;;;;;0.20;0.20;;;;;;;;;;4970949;28;20046;-72
2023/12/24 00:25:38;;;;;;;0.00;0.00;;;;;;;;;;4974061;28;20454;-72
2023/12/24 00:28:04;;;;;;;0.03;0.03;;;;;;;;;;4977288;28;20909;-72
2023/12/24 00:30:30;;;;;;;0.30;0.10;;;;;;;;;;4976283;28;20051;-70
2023/12/24 00:32:56;;;;;;;0.80;0.63;;;;;;;;;;4969989;28;20098;-72
2023/12/24 00:35:22;;;;;;;0.00;0.00;;;;;;;;;;4955589;28;20130;-71
2023/12/24 00:37:49;;;;;;;0.00;0.00;;;;;;;;;;4960014;28;20149;-71
2023/12/24 00:40:15;;;;;;;0.00;0.00;;;;;;;;;;4970116;28;20589;-71
2023/12/24 00:42:41;;;;;;;0.05;0.05;;;;;;;;;;4977038;28;20038;-71
2023/12/24 00:45:08;;;;;;;0.00;0.00;;;;;;;;;;4957147;28;20073;-71
2023/12/24 00:47:34;;;;;;;0.00;0.00;;;;;;;;;;4957241;28;20498;-71
2023/12/24 00:50:00;;;;;;;0.43;0.43;;;;;;;;;;4957722;28;20046;-72
2023/12/24 00:52:26;;;;;;;0.00;0.00;;;;;;;;;;4960347;28;20042;-71
2023/12/24 00:54:52;;;;;;;0.00;0.00;;;;;;;;;;4967380;28;20038;-68
2023/12/24 00:57:18;;;;;;;0.00;0.00;;;;;;;;;;4957140;28;20031;-67
2023/12/24 00:59:44;;;;;;;0.57;0.20;;;;;;;;;;4959427;28;20046;-67
2023/12/24 01:02:10;;;;;;;0.10;0.10;;;;;;;;;;4971507;28;20613;-67
2023/12/24 01:04:36;;;;;;;0.45;0.32;;;;;;;;;;4960774;28;20046;-67
2023/12/24 01:07:02;;;;;;;0.50;0.28;;;;;;;;;;4962031;28;20042;-67
2023/12/24 01:09:28;;;;;;;1.45;0.22;;;;;;;;;;4975585;28;20419;-66
2023/12/24 01:11:54;;;;;;;0.00;0.00;;;;;;;;;;4977784;28;20167;-67
2023/12/24 01:14:20;;;;;;;0.98;0.28;;;;;;;;;;4973978;28;20035;-69
2023/12/24 01:16:46;;;;;;;0.00;0.00;;;;;;;;;;4975859;28;20812;-68
2023/12/24 01:19:13;;;;;;;0.17;0.17;;;;;;;;;;4972865;28;20038;-68
2023/12/24 01:21:39;;;;;;;2.92;0.57;;;;;;;;;;4958610;28;20459;-67
2023/12/24 01:24:05;;;;;;;0.00;0.00;;;;;;;;;;4954912;28;20161;-69
2023/12/24 01:26:32;;;;;;;1.08;0.10;;;;;;;;;;4966267;28;20058;-68
2023/12/24 01:28:58;;;;;;;2.83;0.10;;;;;;;;;;4970798;28;20034;-67
2023/12/24 01:31:25;;;;;;;0.05;0.00;;;;;;;;;;4974322;28;20379;-66
2023/12/24 01:33:51;;;;;;;0.00;0.00;;;;;;;;;;4975159;28;20038;-68
2023/12/24 01:36:17;;;;;;;0.08;0.08;;;;;;;;;;4973530;28;20054;-71
2023/12/24 01:38:43;;;;;;;0.52;0.20;;;;;;;;;;4976571;28;20082;-71
2023/12/24 01:41:09;;;;;;;0.93;0.50;;;;;;;;;;4977615;28;20125;-71
2023/12/24 01:43:35;;;;;;;0.03;0.03;;;;;;;;;;4960897;28;20038;-71
2023/12/24 01:46:02;;;;;;;0.00;0.00;;;;;;;;;;4977468;28;20045;-71
2023/12/24 01:48:28;;;;;;;2.45;0.52;;;;;;;;;;4979910;28;20045;-71
2023/12/24 01:50:57;;;;;;;0.00;0.00;;;;;;;;;;4977473;28;20042;-72
2023/12/24 01:53:23;;;;;;;0.00;0.00;;;;;;;;;;4977820;28;20073;-72
2023/12/24 01:55:49;;;;;;;0.75;0.75;;;;;;;;;;4981193;28;20141;-72
2023/12/24 01:58:15;;;;;;;2.30;0.28;;;;;;;;;;4980834;28;20516;-70
2023/12/24 02:00:41;;;;;;;0.00;0.00;;;;;;;;;;4978323;28;20039;-70
2023/12/24 02:03:08;;;;;;;0.00;0.00;;;;;;;;;;4976878;28;20037;-71
2023/12/24 02:05:35;;;;;;;0.00;0.00;;;;;;;;;;4978986;28;20076;-71
2023/12/24 02:08:02;;;;;;;1.08;0.40;;;;;;;;;;4977887;28;20129;-72
2023/12/24 02:10:29;;;;;;;0.00;0.00;;;;;;;;;;4980076;28;20140;-71
2023/12/24 02:12:55;;;;;;;0.00;0.00;;;;;;;;;;4979044;28;20038;-71
2023/12/24 02:15:21;;;;;;;0.38;0.03;;;;;;;;;;4976963;28;20054;-71
2023/12/24 02:17:47;;;;;;;0.20;0.20;;;;;;;;;;4978569;28;20054;-71
2023/12/24 02:20:13;;;;;;;0.00;0.00;;;;;;;;;;4972213;28;20090;-70
2023/12/24 02:22:39;;;;;;;1.85;0.25;;;;;;;;;;4988082;28;20082;-71
2023/12/24 02:25:05;;;;;;;0.00;0.00;;;;;;;;;;4959504;28;21678;-71
2023/12/24 02:27:43;;;;;;;0.00;0.00;;;;;;;;;;4959550;28;20654;-71
2023/12/24 02:30:13;;;;;;;1.00;0.10;;;;;;;;;;4974238;28;20038;-71
2023/12/24 02:32:40;;;;;;;0.00;0.00;;;;;;;;;;4977706;28;20030;-71
2023/12/24 02:35:07;;;;;;;0.13;0.10;;;;;;;;;;4975625;28;20035;-70
2023/12/24 02:37:33;;;;;;;0.00;0.00;;;;;;;;;;4967293;28;20178;-71
2023/12/24 02:40:00;;;;;;;0.00;0.00;;;;;;;;;;4977418;28;20187;-71
2023/12/24 02:42:26;;;;;;;0.00;0.00;;;;;;;;;;4966439;28;20043;-71
2023/12/24 02:44:52;;;;;;;0.30;0.30;;;;;;;;;;4959066;28;20521;-70
2023/12/24 02:47:18;;;;;;;0.00;0.00;;;;;;;;;;4961120;28;20045;-71
2023/12/24 02:49:44;;;;;;;0.00;0.00;;;;;;;;;;4982598;28;20283;-72
2023/12/24 02:52:10;;;;;;;0.30;0.30;;;;;;;;;;4974386;28;20466;-71
2023/12/24 02:54:36;;;;;;;0.03;0.03;;;;;;;;;;4975237;28;20470;-71
2023/12/24 02:57:02;;;;;;;0.50;0.50;;;;;;;;;;4976208;28;20085;-72
2023/12/24 02:59:28;;;;;;;0.13;0.10;;;;;;;;;;4974585;28;20494;-71
2023/12/24 03:01:54;;;;;;;0.38;0.20;;;;;;;;;;4982041;28;20491;-71
2023/12/24 03:04:20;;;;;;;0.08;0.03;;;;;;;;;;4958492;28;20403;-70
2023/12/24 03:06:46;;;;;;;0.00;0.00;;;;;;;;;;4959458;28;20035;-71
2023/12/24 03:09:12;;;;;;;0.00;0.00;;;;;;;;;;4965624;28;20035;-71
2023/12/24 03:11:38;;;;;;;7.20;0.22;;;;;;;;;;4961374;28;20030;-71
2023/12/24 03:14:04;;;;;;;0.13;0.13;;;;;;;;;;4967001;28;20042;-72
2023/12/24 03:16:30;;;;;;;0.03;0.03;;;;;;;;;;4980678;28;20092;-67
2023/12/24 03:18:56;;;;;;;0.00;0.00;;;;;;;;;;4982514;28;20062;-67
2023/12/24 03:21:22;;;;;;;0.08;0.08;;;;;;;;;;4980663;28;20042;-67
2023/12/24 03:23:48;;;;;;;0.22;0.17;;;;;;;;;;4979099;28;20042;-67
2023/12/24 03:26:23;;;;;;;0.03;0.03;;;;;;;;;;4978626;28;20058;-68
2023/12/24 03:28:49;;;;;;;0.00;0.00;;;;;;;;;;4977527;28;20034;-67
2023/12/24 03:31:16;;;;;;;0.00;0.00;;;;;;;;;;4975012;28;20061;-68
2023/12/24 03:33:42;;;;;;;0.00;0.00;;;;;;;;;;4978769;28;20058;-67
2023/12/24 03:36:09;;;;;;;0.00;0.00;;;;;;;;;;4957078;28;20039;-67
2023/12/24 03:38:35;;;;;;;0.00;0.00;;;;;;;;;;4978605;28;20122;-69
2023/12/24 03:41:01;;;;;;;1.95;0.10;;;;;;;;;;4961108;28;20088;-67
2023/12/24 03:43:27;;;;;;;0.10;0.10;;;;;;;;;;4976312;28;20508;-66
2023/12/24 03:45:53;;;;;;;0.00;0.00;;;;;;;;;;4973044;28;20039;-68
2023/12/24 03:48:19;;;;;;;0.20;0.10;;;;;;;;;;4961513;28;20616;-68
2023/12/24 03:50:44;;;;;;;0.00;0.00;;;;;;;;;;4975501;28;20394;-67
2023/12/24 03:53:10;;;;;;;0.00;0.00;;;;;;;;;;4956426;28;20633;-68
2023/12/24 03:55:36;;;;;;;0.10;0.00;;;;;;;;;;4957474;28;20039;-71
2023/12/24 03:58:03;;;;;;;0.00;0.00;;;;;;;;;;4957349;28;20130;-71
2023/12/24 04:00:29;;;;;;;0.10;0.08;;;;;;;;;;4968396;28;20702;-72
2023/12/24 04:02:55;;;;;;;0.00;0.00;;;;;;;;;;4963035;28;20035;-70
2023/12/24 04:05:21;;;;;;;0.00;0.00;;;;;;;;;;4960573;28;20047;-71
2023/12/24 04:07:47;;;;;;;0.28;0.17;;;;;;;;;;4957539;28;20043;-72
2023/12/24 04:10:13;;;;;;;0.10;0.10;;;;;;;;;;4957291;28;20041;-71
2023/12/24 04:12:40;;;;;;;0.00;0.00;;;;;;;;;;4960373;28;20046;-72
2023/12/24 04:15:07;;;;;;;0.10;0.00;;;;;;;;;;4962123;28;20038;-71
2023/12/24 04:17:36;;;;;;;0.10;0.10;;;;;;;;;;4980110;28;20041;-72
2023/12/24 04:20:03;;;;;;;0.15;0.13;;;;;;;;;;4988971;28;20038;-71
2023/12/24 04:22:29;;;;;;;0.00;0.00;;;;;;;;;;4977933;28;20042;-72
2023/12/24 04:24:55;;;;;;;0.10;0.10;;;;;;;;;;4977137;28;21576;-68
2023/12/24 04:27:21;;;;;;;0.00;0.00;;;;;;;;;;4971606;28;20446;-68
2023/12/24 04:29:47;;;;;;;0.00;0.00;;;;;;;;;;4971441;28;20066;-66
2023/12/24 04:32:13;;;;;;;1.13;0.10;;;;;;;;;;4978140;28;20040;-66
2023/12/24 04:34:39;;;;;;;0.00;0.00;;;;;;;;;;4976749;28;20053;-67
2023/12/24 04:37:05;;;;;;;0.00;0.00;;;;;;;;;;4976610;28;20482;-67
2023/12/24 04:39:31;;;;;;;0.17;0.10;;;;;;;;;;4978596;28;20042;-67
2023/12/24 04:41:57;;;;;;;0.00;0.00;;;;;;;;;;4974628;28;20243;-68
2023/12/24 04:44:23;;;;;;;0.00;0.00;;;;;;;;;;4976666;28;20042;-68
2023/12/24 04:46:50;;;;;;;0.00;0.00;;;;;;;;;;4976231;28;20034;-66
2023/12/24 04:49:16;;;;;;;0.00;0.00;;;;;;;;;;4979178;28;20061;-67
2023/12/24 04:51:42;;;;;;;0.10;0.10;;;;;;;;;;4974785;28;20038;-67
2023/12/24 04:54:07;;;;;;;0.00;0.00;;;;;;;;;;4968140;28;20142;-67
2023/12/24 04:56:33;;;;;;;1.88;0.85;;;;;;;;;;4971081;28;20693;-66
2023/12/24 04:59:00;;;;;;;0.00;0.00;;;;;;;;;;4954591;28;20579;-68
2023/12/24 05:01:26;;;;;;;0.00;0.00;;;;;;;;;;4973268;28;20510;-67
2023/12/24 05:03:52;;;;;;;0.20;0.17;;;;;;;;;;4973963;28;20034;-67
2023/12/24 05:06:18;;;;;;;0.00;0.00;;;;;;;;;;4982187;28;20040;-67
2023/12/24 05:08:44;;;;;;;0.00;0.00;;;;;;;;;;4988217;28;20750;-68
2023/12/24 05:11:10;;;;;;;0.00;0.00;;;;;;;;;;4977360;28;20443;-68
2023/12/24 05:13:36;;;;;;;0.08;0.08;;;;;;;;;;4977063;28;20092;-68
2023/12/24 05:16:03;;;;;;;0.28;0.00;;;;;;;;;;4976780;28;20061;-66
2023/12/24 05:18:29;;;;;;;0.00;0.00;;;;;;;;;;4976964;28;20077;-67
2023/12/24 05:20:55;;;;;;;0.00;0.00;;;;;;;;;;4976587;28;20493;-68
2023/12/24 05:23:21;;;;;;;0.10;0.08;;;;;;;;;;4977670;28;20048;-68
2023/12/24 05:25:48;;;;;;;0.43;0.30;;;;;;;;;;4976273;28;20038;-69
2023/12/24 05:28:16;;;;;;;0.00;0.00;;;;;;;;;;4975919;28;20249;-67
2023/12/24 05:30:42;;;;;;;0.00;0.00;;;;;;;;;;4976680;28;20125;-67
2023/12/24 05:33:08;;;;;;;0.00;0.00;;;;;;;;;;4977259;28;20104;-68
2023/12/24 05:35:34;;;;;;;0.00;0.00;;;;;;;;;;4975001;28;20046;-72
2023/12/24 05:37:59;;;;;;;0.00;0.00;;;;;;;;;;4958608;28;20066;-71
2023/12/24 05:40:26;;;;;;;0.00;0.00;;;;;;;;;;4973980;28;20096;-71
2023/12/24 05:42:51;;;;;;;0.00;0.00;;;;;;;;;;4975330;28;20042;-73
2023/12/24 05:45:18;;;;;;;0.28;0.28;;;;;;;;;;4971806;28;20565;-72
2023/12/24 05:47:44;;;;;;;0.10;0.00;;;;;;;;;;4957599;28;20086;-72
2023/12/24 05:50:10;;;;;;;0.05;0.00;;;10.60;99.90;;;;;;4976563;28;20034;-70
2023/12/24 05:52:37;;;;;;;0.13;0.10;;;10.50;99.90;;;;;;4974352;28;20096;-71
2023/12/24 05:55:03;;;;;;;0.00;0.00;;;10.50;99.90;;;;;;4973873;28;20046;-72
2023/12/24 05:57:29;;;;;;;0.00;0.00;;;10.50;99.90;;;;;;4974756;28;20042;-71
2023/12/24 05:59:54;;;;;;;0.00;0.00;;;10.40;99.90;;;;;;4969005;28;20053;-71
2023/12/24 06:02:20;;;;;;;0.05;0.05;;;10.40;99.90;;;;;;4973379;28;20042;-72
2023/12/24 06:04:45;;;;;;;0.00;0.00;;;10.40;99.90;;;;;;4973310;28;20034;-72
2023/12/24 06:07:11;;;;;;;0.00;0.00;;;10.40;99.90;;;;;;4974987;28;20125;-72
2023/12/24 06:09:37;;;;;;;0.00;0.00;;;10.40;99.90;;;;;;4984307;28;20070;-72
2023/12/24 06:12:03;;;;;;;0.00;0.00;;;10.50;99.90;;;;;;4976940;28;20244;-71
2023/12/24 06:14:29;;;;;;;0.00;0.00;;;10.50;99.90;;;;;;4977374;28;20094;-72
2023/12/24 06:16:54;;;;;;;0.05;0.05;;;10.50;99.90;;;;;;4974128;28;20739;-71
2023/12/24 06:19:20;;;;;;;0.10;0.10;;;10.50;99.90;;;;;;4981521;28;20358;-72
2023/12/24 06:21:45;;;;;;;0.57;0.57;;;10.40;99.90;;;;;;4976152;28;20531;-70
2023/12/24 06:24:11;;;;;;;0.13;0.13;;;10.40;99.90;;;;;;4977140;28;20034;-71
2023/12/24 06:26:37;;;;;;;0.15;0.15;;;10.40;99.90;;;;;;4979292;28;20133;-72
2023/12/24 06:29:02;;;;;;;0.10;0.10;;;10.50;99.90;;;;;;4977871;28;20038;-72
2023/12/24 06:31:28;;;;;;;0.13;0.05;;;10.50;99.90;;;;;;4981133;28;20038;-72
2023/12/24 06:33:53;;;;;;;0.35;0.05;;;10.50;99.90;;;;;;4981491;28;20058;-71
2023/12/24 06:36:19;;;;;;;0.05;0.05;;;10.50;99.90;;;;;;4978675;28;20494;-70
2023/12/24 06:38:45;;;;;;;0.00;0.00;;;10.50;99.90;;;;;;4981306;28;20632;-71
2023/12/24 06:41:10;;;;;;;0.25;0.25;;;10.50;99.90;;;;;;4978832;28;20042;-72
2023/12/24 06:43:37;;;;;;;0.17;0.17;;;10.50;99.90;;;;;;4979935;28;20682;-70
2023/12/24 06:46:03;;;;;;;0.08;0.00;;;10.50;99.90;;;;;;4979783;28;20048;-67
2023/12/24 06:48:28;;;;;;;0.00;0.00;;;10.50;99.90;;;;;;4982332;28;20057;-67
2023/12/24 06:50:54;;;;;;;0.60;0.60;;;10.50;99.90;;;;;;4980893;28;20073;-68
2023/12/24 06:53:19;;;;;;;0.40;0.40;;;10.50;99.90;;;;;;4978174;28;20052;-68
2023/12/24 06:55:45;;;;;;;0.20;0.10;;;10.50;99.90;;;;;;4977990;28;20034;-68
2023/12/24 06:58:10;;;;;;;0.10;0.10;;;10.50;99.90;;;;;;4975011;28;20045;-67
2023/12/24 07:00:36;;;;;;;0.10;0.10;;;10.50;99.90;;;;;;4970568;28;20173;-66
2023/12/24 07:03:02;;;;;;;0.00;0.00;;;10.50;99.90;;;;;;4969100;28;20174;-66
2023/12/24 07:05:34;;;;;;;0.10;0.10;;;10.50;99.90;;;;;;4974351;28;20035;-68
2023/12/24 07:07:59;;;;;;;0.28;0.22;;;10.50;99.90;;;;;;4968808;28;21381;-68
2023/12/24 07:10:25;;;;;;;0.17;0.10;;;10.50;99.90;;;;;;4981534;28;20121;-68
2023/12/24 07:12:51;;;;;;;0.00;0.00;;;10.60;99.90;;;;;;4986424;28;20121;-68
2023/12/24 07:15:17;;;;;;;0.00;0.00;;;10.50;99.90;;;;;;4976447;28;20049;-68
2023/12/24 07:17:42;;;;;;;1.75;0.10;;;10.60;99.90;;;;;;4977929;28;20042;-68
2023/12/24 07:20:08;;;;;;;0.00;0.00;;;10.60;99.90;;;;;;4982443;28;20046;-67
2023/12/24 07:22:34;;;;;;;0.43;0.10;;;10.60;99.90;;;;;;4978278;28;20039;-69
2023/12/24 07:25:00;;;;;;;0.00;0.00;;;10.50;99.90;;;;;;4975494;28;20042;-67
2023/12/24 07:27:25;;;;;;;0.00;0.00;;;10.50;99.90;;;;;;4974747;28;20034;-68
2023/12/24 07:29:51;;;;;;;1.67;1.58;;;10.50;99.90;;;;;;4978373;28;20030;-66
2023/12/24 07:32:16;;;;;;;0.10;0.10;;;10.60;99.90;;;;;;4979101;28;20064;-67
2023/12/24 07:34:43;;;;;;;0.00;0.00;;;;;;;;;;4980334;28;20124;-66
2023/12/24 07:37:09;;;;;;;0.05;0.05;;;;;;;;;;4978316;28;20589;-68
2023/12/24 07:39:35;;;;;;;0.20;0.10;;;;;;;;;;4978207;28;20038;-68
2023/12/24 07:42:02;;;;;;;0.30;0.05;;;;;;;;;;4976470;28;20065;-67
2023/12/24 07:44:28;;;;;;;6.60;1.92;;;;;;;;;;4976790;28;20069;-67
2023/12/24 07:46:55;;;;;;;0.20;0.20;;;;;;;;;;4976928;28;20031;-68
2023/12/24 07:49:21;;;;;;;0.17;0.17;;;;;;;;;;4986666;28;20149;-67
2023/12/24 07:51:48;;;;;;;0.00;0.00;;;;;;;;;;4977432;28;20030;-67
2023/12/24 07:54:14;;;;;;;1.90;0.38;;;;;;;;;;4974326;28;20517;-69
2023/12/24 07:56:41;;;;;;;1.33;0.40;;;;;;;;;;4978136;28;20061;-66
2023/12/24 07:59:08;;;;;;;0.35;0.30;;;;;;;;;;4984862;28;20070;-67
2023/12/24 08:01:34;;;;;;;0.10;0.10;;;;;;;;;;4985240;28;20565;-68
2023/12/24 08:04:01;;;;;;;0.00;0.00;;;;;;;;;;4986367;28;20038;-67
2023/12/24 08:06:27;;;;;;;0.00;0.00;;;;;;;;;;4975185;28;20045;-67
2023/12/24 08:08:54;;;;;;;0.70;0.40;;;;;;;;;;4985218;28;20580;-67
2023/12/24 08:11:20;;;;;;;0.93;0.80;;;;;;;;;;4984101;28;20113;-67
2023/12/24 08:13:47;;;;;;;1.25;0.60;;;;;;;;;;4986783;28;20065;-67
2023/12/24 08:16:13;;;;;;;0.80;0.40;;;;;;;;;;4983704;28;20482;-66
2023/12/24 08:18:39;;;;;;;1.27;0.55;;;;;;;;;;4991647;28;20140;-68
2023/12/24 08:21:10;;;;;;;0.57;0.40;;;;;;;;;;4988235;28;20132;-67
2023/12/24 08:23:37;;;;;;;2.08;0.20;;;;;;;;;;4984893;28;20030;-68
2023/12/24 08:26:04;;;;;;;0.80;0.47;;;;;;;;;;4986297;28;20043;-67
2023/12/24 08:28:29;;;;;;;1.73;0.38;;;;;;;;;;4986377;28;20038;-67
2023/12/24 08:30:56;;;;;;;1.00;0.50;;;;;;;;;;4987350;28;20115;-66
2023/12/24 08:33:21;;;;;;;3.60;0.70;;;;;;;;;;4985980;28;20031;-68
2023/12/24 08:35:47;;;;;;;0.80;0.60;;;;;;;;;;4986958;28;20129;-67
2023/12/24 08:38:13;;;;;;;1.10;0.60;;;;;;;;;;4985256;28;20738;-67
2023/12/24 08:40:39;;;;;;;0.57;0.50;;;;;;;;;;4983933;28;20042;-67
2023/12/24 08:43:05;;;;;;;0.88;0.60;;;;;;;;;;4984194;28;20118;-67
2023/12/24 08:45:31;;;;;;;0.60;0.50;;;;;;;;;;4986162;28;20058;-72
2023/12/24 08:47:57;;;;;;;0.70;0.40;;;;;;;;;;4989829;28;20069;-71
2023/12/24 08:50:24;;;;;;;0.68;0.50;;;;;;;;;;4988552;28;20089;-71
2023/12/24 08:52:50;;;;;;;0.95;0.85;;;;;;;;;;4986328;28;20030;-71
2023/12/24 08:55:16;;;;;;;0.00;0.00;;;;;;;;;;4983387;28;20048;-67
2023/12/24 08:57:42;;;;;;;0.08;0.08;;;;;;;;;;4970618;28;20411;-68
2023/12/24 09:00:11;;;;;;;0.20;0.20;;;;;;;;;;4968148;28;20557;-67
2023/12/24 09:02:39;;;;;;;0.57;0.30;;;;;;;;;;4968290;28;20158;-66
2023/12/24 09:05:07;;;;;;;3.20;0.60;;;;;;;;;;4966501;28;20146;-67
2023/12/24 09:07:33;;;;;;;0.00;0.00;;;;;;;;;;4987000;28;20065;-68
2023/12/24 09:09:59;;;;;;;0.00;0.00;;;;;;;;;;4974587;28;20093;-66
2023/12/24 09:12:25;;;;;;;0.00;0.00;;;;;;;;;;4977100;28;20043;-66
2023/12/24 09:14:51;;;;;;;0.00;0.00;;;;;;;;;;4971442;28;20112;-68
2023/12/24 09:17:17;;;;;;;0.20;0.20;;;;;;;;;;4972079;28;20034;-67
2023/12/24 09:19:43;;;;;;;0.30;0.20;;;;;;;;;;4978317;28;20527;-66
2023/12/24 09:22:09;;;;;;;0.00;0.00;;;;;;;;;;4959693;28;20090;-67
2023/12/24 09:24:35;;;;;;;0.20;0.00;;;;;;;;;;4967007;28;20308;-68
2023/12/24 09:27:01;;;;;;;0.00;0.00;;;;;;;;;;4973473;28;20041;-67
2023/12/24 09:29:27;;;;;;;0.10;0.10;;;;;;;;;;4972455;28;20113;-68
2023/12/24 09:31:53;;;;;;;0.00;0.00;;;;;;;;;;4973677;28;20139;-69
2023/12/24 09:34:19;;;;;;;0.00;0.00;;;;;;;;;;4975423;28;20034;-68
2023/12/24 09:36:45;;;;;;;0.00;0.00;;;;;;;;;;4976086;28;20041;-69
2023/12/24 09:39:11;;;;;;;0.00;0.00;;;;;;;;;;4973898;28;20046;-67
2023/12/24 09:41:37;;;;;;;1.55;0.32;;;;;;;;;;4973227;28;20046;-67
2023/12/24 09:44:03;;;;;;;0.00;0.00;;;;;;;;;;4972715;28;20331;-68
2023/12/24 09:46:29;;;;;;;0.20;0.10;;;;;;;;;;4973914;28;20051;-68
2023/12/24 09:48:55;;;;;;;0.00;0.00;;;;;;;;;;4978418;28;20072;-67
2023/12/24 09:51:23;;;;;;;0.00;0.00;;;;;;;;;;4973895;28;20763;-67
2023/12/24 09:53:50;;;;;;;0.03;0.03;;;;;;;;;;4969034;28;20049;-67
2023/12/24 09:56:16;;;;;;;0.10;0.10;;;;;;;;;;4971959;28;20595;-69
2023/12/24 09:58:43;;;;;;;0.22;0.22;;;;;;;;;;4966083;28;20048;-68
2023/12/24 10:01:10;;;;;;;0.08;0.00;;;;;;;;;;4973740;28;20049;-69
2023/12/24 10:03:36;;;;;;;0.38;0.17;;;;;;;;;;4977693;28;20038;-69
2023/12/24 10:06:03;;;;;;;0.30;0.30;;;;;;;;;;4961032;28;20664;-68
2023/12/24 10:08:30;;;;;;;0.00;0.00;;;;;;;;;;4962968;28;20053;-69
2023/12/24 10:10:56;;;;;;;0.08;0.00;;;;;;;;;;4974309;28;20092;-69
2023/12/24 10:13:22;;;;;;;0.10;0.10;;;;;;;;;;4978775;28;20034;-69
2023/12/24 10:16:05;;;;;;;0.00;0.00;;;;;;;;;;4976096;28;20579;-68
2023/12/24 10:18:31;;;;;;;0.35;0.15;;;;;;;;;;4994669;28;20038;-69
2023/12/24 10:21:06;;;;;;;0.20;0.20;;;;;;;;;;4983337;28;20449;-68
2023/12/24 10:23:32;;;;;;;0.00;0.00;;;;;;;;;;4981471;28;20066;-68
2023/12/24 10:26:02;;;;;;;0.00;0.00;;;;;;;;;;4975482;28;20065;-72
2023/12/24 10:28:28;;;;;;;0.10;0.00;;;;;;;;;;4972842;28;20038;-73
2023/12/24 10:31:07;;;;;;;0.20;0.10;;;;;;;;;;4957481;28;20383;-72
2023/12/24 10:33:34;;;;;;;0.00;0.00;;;;;;;;;;4976568;28;20600;-73
2023/12/24 10:36:00;;;;;;;0.10;0.10;;;;;;;;;;4980311;28;20176;-72
2023/12/24 10:38:29;;;;;;;0.85;0.40;;;;;;;;;;4968170;28;20047;-72
2023/12/24 10:40:55;;;;;;;0.08;0.08;;;;;;;;;;4968469;28;20051;-71
2023/12/24 10:43:21;;;;;;;0.00;0.00;;;;;;;;;;4967657;28;20046;-72
2023/12/24 10:45:47;;;;;;;0.00;0.00;;;;;;;;;;4976378;28;20104;-72
2023/12/24 10:48:13;;;;;;;0.00;0.00;;;;;;;;;;4963559;28;20046;-72
2023/12/24 10:50:39;;;;;;;0.00;0.00;;;;;;;;;;4970761;28;20041;-72
2023/12/24 10:53:05;;;;;;;0.20;0.15;;;;;;;;;;4958191;28;20466;-71
2023/12/24 10:55:32;;;;;;;0.05;0.05;;;;;;;;;;4959036;28;20046;-72
2023/12/24 10:58:21;;;;;;;0.28;0.10;;;;;;;;;;4969161;28;20132;-71
2023/12/24 11:00:46;;;;;;;0.20;0.20;;;;;;;;;;4976055;28;20101;-71
2023/12/24 11:03:32;;;;;;;0.32;0.03;;;;;;;;;;4975356;28;20422;-71
2023/12/24 11:05:58;;;;;;;0.00;0.00;;;;;;;;;;4978469;28;20114;-71
2023/12/24 11:08:24;;;;;;;0.00;0.00;;;;;;;;;;4974210;28;20039;-73
2023/12/24 11:10:54;;;;;;;0.00;0.00;;;;;;;;;;4958058;28;20039;-72
2023/12/24 11:13:29;;;;;;;1.95;0.10;;;;;;;;;;4954619;28;20046;-73
2023/12/24 11:15:55;;;;;;;0.52;0.47;;;;;;;;;;4957555;28;20035;-73
2023/12/24 11:18:39;;;;;;;0.10;0.05;;;;;;;;;;4963373;28;20402;-73
2023/12/24 11:21:05;;;;;;;1.33;0.50;;;;;;;;;;4967834;28;20365;-73
2023/12/24 11:23:31;;;;;;;0.13;0.10;;;;;;;;;;4974760;28;20041;-72
2023/12/24 11:25:57;;;;;;;0.15;0.10;;;;;;;;;;4982473;28;20034;-73
2023/12/24 11:28:23;;;;;;;0.10;0.10;;;;;;;;;;4965335;28;20039;-73
2023/12/24 11:30:52;;;;;;;0.00;0.00;;;;;;;;;;4974658;28;21323;-72
2023/12/24 11:33:44;;;;;;;0.38;0.30;;;;;;;;;;4957883;28;20420;-74
2023/12/24 11:36:10;;;;;;;0.20;0.20;;;;;;;;;;4963257;28;20127;-68
2023/12/24 11:38:36;;;;;;;0.32;0.30;;;;;;;;;;4961544;28;20047;-67
2023/12/24 11:41:09;;;;;;;0.10;0.10;;;;;;;;;;4955711;28;20045;-69
2023/12/24 11:43:36;;;;;;;0.10;0.10;;;;;;;;;;4954251;28;20046;-67
2023/12/24 11:46:05;;;;;;;0.20;0.20;;;;;;;;;;4955435;28;20153;-67
2023/12/24 11:48:33;;;;;;;0.60;0.30;;;;;;;;;;4962698;28;20053;-66
2023/12/24 11:51:02;;;;;;;0.77;0.50;;;;;;;;;;4963864;28;20046;-68
2023/12/24 11:53:29;;;;;;;0.63;0.30;;;;;;;;;;4960488;28;20494;-68
2023/12/24 11:56:04;;;;;;;1.02;0.30;;;;;;;;;;4956713;28;20125;-69
2023/12/24 11:58:30;;;;;;;0.70;0.20;;;;;;;;;;4959258;28;20129;-68
2023/12/24 12:01:02;;;;;;;0.10;0.10;;;;;;;;;;4968056;28;20053;-67
2023/12/24 12:03:28;;;;;;;0.00;0.00;;;;;;;;;;4976315;28;20034;-68
2023/12/24 12:05:54;;;;;;;1.27;1.10;;;;;;;;;;4975403;28;20498;-68
2023/12/24 12:08:20;;;;;;;4.68;2.20;;;;;;;;;;4977793;28;20710;-67
2023/12/24 12:10:46;;;;;;;4.10;2.20;;;;;;;;;;4976912;28;20048;-68
2023/12/24 12:13:12;;;;;;;3.50;1.65;;;;;;;;;;4976036;28;20089;-68
2023/12/24 12:15:38;;;;;;;0.45;0.45;;;;;;;;;;4972769;28;20057;-68
2023/12/24 12:18:04;;;;;;;1.17;0.60;;;;;;;;;;4975677;28;20031;-68
2023/12/24 12:20:31;;;;;;;0.40;0.17;;;;;;;;;;4979254;28;20596;-68
2023/12/24 12:22:58;;;;;;;0.03;0.03;;;;;;;;;;4977394;28;21069;-67
2023/12/24 12:25:24;;;;;;;0.00;0.00;;;;;;;;;;4963820;28;20035;-68
2023/12/24 12:27:50;;;;;;;0.17;0.17;;;;;;;;;;4961207;28;20065;-68
2023/12/24 12:30:16;;;;;;;0.10;0.10;;;;;;;;;;4973699;28;20038;-68
2023/12/24 12:32:42;;;;;;;0.17;0.17;;;;;;;;;;4976247;28;20035;-68
2023/12/24 12:35:10;;;;;;;0.13;0.13;;;;;;;;;;4976631;28;20786;-67
2023/12/24 12:37:36;;;;;;;0.08;0.00;;;;;;;;;;4971619;28;20051;-67
2023/12/24 12:40:03;;;;;;;0.15;0.15;;;;;;;;;;4968102;28;20053;-68
2023/12/24 12:42:29;;;;;;;0.00;0.00;;;;;;;;;;4966714;28;20031;-68
2023/12/24 12:44:55;;;;;;;0.00;0.00;;;;;;;;;;4957191;28;20038;-68
2023/12/24 12:47:21;;;;;;;0.00;0.00;;;;;;;;;;4963802;28;20515;-69
2023/12/24 12:49:47;;;;;;;0.00;0.00;;;;;;;;;;4959605;28;20442;-68
2023/12/24 12:52:13;;;;;;;0.25;0.22;;;;;;;;;;4956106;28;20408;-69
2023/12/24 12:54:39;;;;;;;0.80;0.20;;;;;;;;;;4970685;28;20481;-67
2023/12/24 12:57:05;;;;;;;0.10;0.00;;;;;;;;;;4973267;28;20039;-69
2023/12/24 12:59:32;;;;;;;0.05;0.05;;;;;;;;;;4974217;28;20042;-68
2023/12/24 13:01:59;;;;;;;0.00;0.00;;;;;;;;;;4974556;28;20042;-66
2023/12/24 13:04:26;;;;;;;0.00;0.00;;;;;;;;;;4952115;28;20042;-67
2023/12/24 13:06:52;;;;;;;0.82;0.30;;;;;;;;;;4969339;28;20034;-67
2023/12/24 13:09:21;;;;;;;0.35;0.35;;;;;;;;;;4964576;28;20053;-67
2023/12/24 13:11:48;;;;;;;0.00;0.00;;;;;;;;;;4956696;28;20097;-67
2023/12/24 13:14:13;;;;;;;0.70;0.15;;;;;;;;;;4958117;28;20054;-68
2023/12/24 13:16:40;;;;;;;0.08;0.08;;;;;;;;;;4954887;28;20540;-70
2023/12/24 13:19:20;;;;;;;0.20;0.20;;;;;;;;;;4959946;28;20046;-69
2023/12/24 13:21:46;;;;;;;0.20;0.20;;;;;;;;;;4953431;28;20113;-67
2023/12/24 13:24:12;;;;;;;0.00;0.00;;;;;;;;;;4953402;28;20046;-70
2023/12/24 13:26:38;;;;;;;1.85;0.45;;;;;;;;;;4969228;28;20392;-67
2023/12/24 13:29:05;;;;;;;0.20;0.15;;;;;;;;;;4958849;28;20085;-69
2023/12/24 13:31:31;;;;;;;0.65;0.50;;;;;;;;;;4951590;28;20046;-68
2023/12/24 13:33:57;;;;;;;0.65;0.43;;;;;;;;;;4954278;28;20043;-69
2023/12/24 13:36:23;;;;;;;0.50;0.20;;;;;;;;;;4953842;28;20097;-67
2023/12/24 13:38:49;;;;;;;0.82;0.35;;;;;;;;;;4954435;28;20569;-67
2023/12/24 13:41:15;;;;;;;0.08;0.00;;;;;;;;;;4953190;28;20464;-66
2023/12/24 13:43:41;;;;;;;1.15;0.50;;;;;;;;;;4956453;28;20491;-67
2023/12/24 13:46:08;;;;;;;0.60;0.50;;;;;;;;;;4953904;28;20035;-68
2023/12/24 13:48:34;;;;;;;2.10;0.50;;;;;;;;;;4955321;28;20045;-66
2023/12/24 13:51:04;;;;;;;0.28;0.20;;;;;;;;;;4957911;28;20038;-67
2023/12/24 13:53:30;;;;;;;0.85;0.75;;;;;;;;;;4967484;28;20042;-69
2023/12/24 13:55:59;;;;;;;0.38;0.28;;;;;;;;;;4974603;28;20034;-74
2023/12/24 13:58:25;;;;;;;0.50;0.30;;;;;;;;;;4972821;28;20061;-72
2023/12/24 14:00:51;;;;;;;0.00;0.00;;;;;;;;;;4973121;28;20042;-73
2023/12/24 14:03:23;;;;;;;4.57;0.70;;;;;;;;;;4973941;28;20038;-73
2023/12/24 14:05:50;;;;;;;0.47;0.30;;;;;;;;;;4972705;28;21197;-72
2023/12/24 14:08:16;;;;;;;0.88;0.52;;;;;;;;;;4977027;28;20082;-74
2023/12/24 14:10:42;;;;;;;0.10;0.10;;;;;;;;;;4961602;28;20030;-74
2023/12/24 14:13:08;;;;;;;1.27;0.25;;;;;;;;;;4967122;28;20093;-73
2023/12/24 14:15:34;;;;;;;0.00;0.00;;;;;;;;;;4963082;28;20533;-76
2023/12/24 14:18:00;;;;;;;0.30;0.30;;;;;;;;;;4959497;28;20050;-71
2023/12/24 14:20:26;;;;;;;0.55;0.50;;;;;;;;;;4973368;28;20069;-74
2023/12/24 14:22:52;;;;;;;0.15;0.15;;;;;;;;;;4973829;28;20034;-73